sensor_id;sensor_type;location;lat;lon;timestamp;P1;durP1;ratioP1;P2;durP2;ratioP2
73682;SDS011;72538;48.146;11.740;2023-10-31T00:02:17;1.70;;;1.60;;
73682;SDS011;72538;48.146;11.740;2023-10-31T00:04:43;2.03;;;1.50;;
73682;SDS011;72538;48.146;11.740;2023-10-31T00:07:08;1.50;;;1.33;;
73682;SDS011;72538;48.146;11.740;2023-10-31T00:09:34;1.30;;;1.20;;
73682;SDS011;72538;48.146;11.740;2023-10-31T00:12:00;0.97;;;0.97;;
73682;SDS011;72538;48.146;11.740;2023-10-31T00:14:25;1.60;;;1.23;;
73682;SDS011;72538;48.146;11.740;2023-10-31T00:16:52;1.20;;;1.10;;
73682;SDS011;72538;48.146;11.740;2023-10-31T00:19:18;2.23;;;1.07;;
73682;SDS011;72538;48.146;11.740;2023-10-31T00:21:44;2.07;;;0.90;;
73682;SDS011;72538;48.146;11.740;2023-10-31T00:24:10;0.80;;;0.70;;
73682;SDS011;72538;48.146;11.740;2023-10-31T00:26:36;0.80;;;0.67;;
73682;SDS011;72538;48.146;11.740;2023-10-31T00:29:01;2.70;;;0.73;;
73682;SDS011;72538;48.146;11.740;2023-10-31T00:31:27;0.60;;;0.60;;
73682;SDS011;72538;48.146;11.740;2023-10-31T00:33:53;0.70;;;0.70;;
73682;SDS011;72538;48.146;11.740;2023-10-31T00:36:19;0.60;;;0.60;;
73682;SDS011;72538;48.146;11.740;2023-10-31T00:38:44;0.60;;;0.60;;
73682;SDS011;72538;48.146;11.740;2023-10-31T00:41:10;0.67;;;0.67;;
73682;SDS011;72538;48.146;11.740;2023-10-31T00:43:36;0.60;;;0.60;;
73682;SDS011;72538;48.146;11.740;2023-10-31T00:46:02;0.93;;;0.60;;
73682;SDS011;72538;48.146;11.740;2023-10-31T00:48:29;0.50;;;0.50;;
73682;SDS011;72538;48.146;11.740;2023-10-31T00:50:55;0.63;;;0.63;;
73682;SDS011;72538;48.146;11.740;2023-10-31T00:53:20;0.50;;;0.50;;
73682;SDS011;72538;48.146;11.740;2023-10-31T00:55:46;0.90;;;0.70;;
73682;SDS011;72538;48.146;11.740;2023-10-31T00:58:12;1.10;;;0.60;;
73682;SDS011;72538;48.146;11.740;2023-10-31T01:00:38;0.50;;;0.50;;
73682;SDS011;72538;48.146;11.740;2023-10-31T01:03:03;0.50;;;0.50;;
73682;SDS011;72538;48.146;11.740;2023-10-31T01:05:29;0.60;;;0.60;;
73682;SDS011;72538;48.146;11.740;2023-10-31T01:07:55;0.47;;;0.47;;
73682;SDS011;72538;48.146;11.740;2023-10-31T01:10:21;0.40;;;0.40;;
73682;SDS011;72538;48.146;11.740;2023-10-31T01:12:47;0.60;;;0.50;;
73682;SDS011;72538;48.146;11.740;2023-10-31T01:15:12;0.40;;;0.40;;
73682;SDS011;72538;48.146;11.740;2023-10-31T01:17:38;0.40;;;0.40;;
73682;SDS011;72538;48.146;11.740;2023-10-31T01:20:04;0.43;;;0.43;;
73682;SDS011;72538;48.146;11.740;2023-10-31T01:22:31;0.70;;;0.60;;
73682;SDS011;72538;48.146;11.740;2023-10-31T01:24:57;0.90;;;0.43;;
73682;SDS011;72538;48.146;11.740;2023-10-31T01:27:23;0.33;;;0.33;;
73682;SDS011;72538;48.146;11.740;2023-10-31T01:29:48;0.57;;;0.57;;
73682;SDS011;72538;48.146;11.740;2023-10-31T01:32:14;0.73;;;0.50;;
73682;SDS011;72538;48.146;11.740;2023-10-31T01:34:40;0.50;;;0.50;;
73682;SDS011;72538;48.146;11.740;2023-10-31T01:37:06;0.60;;;0.60;;
73682;SDS011;72538;48.146;11.740;2023-10-31T01:39:32;0.50;;;0.50;;
73682;SDS011;72538;48.146;11.740;2023-10-31T01:41:57;0.73;;;0.60;;
73682;SDS011;72538;48.146;11.740;2023-10-31T01:44:23;0.60;;;0.50;;
73682;SDS011;72538;48.146;11.740;2023-10-31T01:46:49;1.03;;;0.40;;
73682;SDS011;72538;48.146;11.740;2023-10-31T01:49:15;0.60;;;0.47;;
73682;SDS011;72538;48.146;11.740;2023-10-31T01:51:41;1.10;;;0.50;;
73682;SDS011;72538;48.146;11.740;2023-10-31T01:54:08;0.50;;;0.50;;
73682;SDS011;72538;48.146;11.740;2023-10-31T01:56:35;0.50;;;0.50;;
73682;SDS011;72538;48.146;11.740;2023-10-31T01:59:02;1.13;;;0.40;;
73682;SDS011;72538;48.146;11.740;2023-10-31T02:01:30;0.43;;;0.43;;
73682;SDS011;72538;48.146;11.740;2023-10-31T02:03:56;0.77;;;0.50;;
73682;SDS011;72538;48.146;11.740;2023-10-31T02:06:24;0.40;;;0.40;;
73682;SDS011;72538;48.146;11.740;2023-10-31T02:08:50;0.40;;;0.40;;
73682;SDS011;72538;48.146;11.740;2023-10-31T02:11:15;0.40;;;0.40;;
73682;SDS011;72538;48.146;11.740;2023-10-31T02:13:41;1.07;;;0.60;;
73682;SDS011;72538;48.146;11.740;2023-10-31T02:16:07;1.10;;;0.50;;
73682;SDS011;72538;48.146;11.740;2023-10-31T02:18:33;0.40;;;0.40;;
73682;SDS011;72538;48.146;11.740;2023-10-31T02:20:59;0.77;;;0.50;;
73682;SDS011;72538;48.146;11.740;2023-10-31T02:23:25;1.03;;;0.50;;
73682;SDS011;72538;48.146;11.740;2023-10-31T02:25:51;0.50;;;0.40;;
73682;SDS011;72538;48.146;11.740;2023-10-31T02:28:16;1.30;;;0.50;;
73682;SDS011;72538;48.146;11.740;2023-10-31T02:30:43;0.57;;;0.40;;
73682;SDS011;72538;48.146;11.740;2023-10-31T02:33:08;1.20;;;0.40;;
73682;SDS011;72538;48.146;11.740;2023-10-31T02:35:34;0.43;;;0.40;;
73682;SDS011;72538;48.146;11.740;2023-10-31T02:38:00;1.03;;;0.40;;
73682;SDS011;72538;48.146;11.740;2023-10-31T02:40:26;0.30;;;0.30;;
73682;SDS011;72538;48.146;11.740;2023-10-31T02:42:51;0.30;;;0.30;;
73682;SDS011;72538;48.146;11.740;2023-10-31T02:45:18;0.60;;;0.40;;
73682;SDS011;72538;48.146;11.740;2023-10-31T02:47:44;0.53;;;0.27;;
73682;SDS011;72538;48.146;11.740;2023-10-31T02:50:09;0.30;;;0.30;;
73682;SDS011;72538;48.146;11.740;2023-10-31T02:52:35;0.30;;;0.30;;
73682;SDS011;72538;48.146;11.740;2023-10-31T02:55:01;0.30;;;0.30;;
73682;SDS011;72538;48.146;11.740;2023-10-31T02:57:27;0.30;;;0.30;;
73682;SDS011;72538;48.146;11.740;2023-10-31T02:59:53;0.40;;;0.40;;
73682;SDS011;72538;48.146;11.740;2023-10-31T03:02:19;0.97;;;0.40;;
73682;SDS011;72538;48.146;11.740;2023-10-31T03:04:44;2.67;;;0.27;;
73682;SDS011;72538;48.146;11.740;2023-10-31T03:07:10;0.40;;;0.40;;
73682;SDS011;72538;48.146;11.740;2023-10-31T03:09:36;0.30;;;0.30;;
73682;SDS011;72538;48.146;11.740;2023-10-31T03:12:02;0.63;;;0.20;;
73682;SDS011;72538;48.146;11.740;2023-10-31T03:14:28;0.30;;;0.30;;
73682;SDS011;72538;48.146;11.740;2023-10-31T03:16:54;3.03;;;0.40;;
73682;SDS011;72538;48.146;11.740;2023-10-31T03:19:19;0.40;;;0.40;;
73682;SDS011;72538;48.146;11.740;2023-10-31T03:21:45;0.40;;;0.40;;
73682;SDS011;72538;48.146;11.740;2023-10-31T03:24:11;0.30;;;0.30;;
73682;SDS011;72538;48.146;11.740;2023-10-31T03:26:36;0.20;;;0.20;;
73682;SDS011;72538;48.146;11.740;2023-10-31T03:29:02;0.40;;;0.40;;
73682;SDS011;72538;48.146;11.740;2023-10-31T03:31:28;0.30;;;0.30;;
73682;SDS011;72538;48.146;11.740;2023-10-31T03:33:54;0.40;;;0.40;;
73682;SDS011;72538;48.146;11.740;2023-10-31T03:36:20;0.30;;;0.30;;
73682;SDS011;72538;48.146;11.740;2023-10-31T03:38:45;0.70;;;0.40;;
73682;SDS011;72538;48.146;11.740;2023-10-31T03:41:11;0.50;;;0.40;;
73682;SDS011;72538;48.146;11.740;2023-10-31T03:43:38;0.83;;;0.30;;
73682;SDS011;72538;48.146;11.740;2023-10-31T03:46:04;0.50;;;0.50;;
73682;SDS011;72538;48.146;11.740;2023-10-31T03:48:30;0.30;;;0.30;;
73682;SDS011;72538;48.146;11.740;2023-10-31T03:50:56;0.47;;;0.47;;
73682;SDS011;72538;48.146;11.740;2023-10-31T03:53:22;0.40;;;0.40;;
73682;SDS011;72538;48.146;11.740;2023-10-31T03:55:48;0.60;;;0.40;;
73682;SDS011;72538;48.146;11.740;2023-10-31T03:58:13;0.30;;;0.30;;
73682;SDS011;72538;48.146;11.740;2023-10-31T04:00:39;0.73;;;0.40;;
73682;SDS011;72538;48.146;11.740;2023-10-31T04:03:07;0.40;;;0.40;;
73682;SDS011;72538;48.146;11.740;2023-10-31T04:05:33;0.77;;;0.67;;
73682;SDS011;72538;48.146;11.740;2023-10-31T04:07:59;0.30;;;0.30;;
73682;SDS011;72538;48.146;11.740;2023-10-31T04:10:26;0.50;;;0.50;;
73682;SDS011;72538;48.146;11.740;2023-10-31T04:12:51;0.43;;;0.43;;
73682;SDS011;72538;48.146;11.740;2023-10-31T04:15:17;0.70;;;0.70;;
73682;SDS011;72538;48.146;11.740;2023-10-31T04:17:43;0.47;;;0.47;;
73682;SDS011;72538;48.146;11.740;2023-10-31T04:20:09;0.70;;;0.57;;
73682;SDS011;72538;48.146;11.740;2023-10-31T04:22:36;0.50;;;0.50;;
73682;SDS011;72538;48.146;11.740;2023-10-31T04:25:02;0.50;;;0.40;;
73682;SDS011;72538;48.146;11.740;2023-10-31T04:27:29;0.50;;;0.50;;
73682;SDS011;72538;48.146;11.740;2023-10-31T04:29:54;1.23;;;0.50;;
73682;SDS011;72538;48.146;11.740;2023-10-31T04:32:20;2.23;;;0.50;;
73682;SDS011;72538;48.146;11.740;2023-10-31T04:34:46;0.70;;;0.53;;
73682;SDS011;72538;48.146;11.740;2023-10-31T04:37:11;0.40;;;0.40;;
73682;SDS011;72538;48.146;11.740;2023-10-31T04:39:37;0.50;;;0.50;;
73682;SDS011;72538;48.146;11.740;2023-10-31T04:42:03;1.43;;;0.80;;
73682;SDS011;72538;48.146;11.740;2023-10-31T04:44:29;0.90;;;0.50;;
73682;SDS011;72538;48.146;11.740;2023-10-31T04:46:55;1.27;;;0.57;;
73682;SDS011;72538;48.146;11.740;2023-10-31T04:49:20;0.80;;;0.70;;
73682;SDS011;72538;48.146;11.740;2023-10-31T04:51:47;0.60;;;0.60;;
73682;SDS011;72538;48.146;11.740;2023-10-31T04:54:14;2.50;;;0.60;;
73682;SDS011;72538;48.146;11.740;2023-10-31T04:56:39;0.70;;;0.70;;
73682;SDS011;72538;48.146;11.740;2023-10-31T04:59:05;2.23;;;0.70;;
73682;SDS011;72538;48.146;11.740;2023-10-31T05:01:31;0.70;;;0.60;;
73682;SDS011;72538;48.146;11.740;2023-10-31T05:03:57;0.70;;;0.60;;
73682;SDS011;72538;48.146;11.740;2023-10-31T05:06:22;4.17;;;0.80;;
73682;SDS011;72538;48.146;11.740;2023-10-31T05:08:48;1.33;;;0.73;;
73682;SDS011;72538;48.146;11.740;2023-10-31T05:11:18;0.73;;;0.60;;
73682;SDS011;72538;48.146;11.740;2023-10-31T05:13:44;1.80;;;0.67;;
73682;SDS011;72538;48.146;11.740;2023-10-31T05:16:11;0.83;;;0.77;;
73682;SDS011;72538;48.146;11.740;2023-10-31T05:18:37;0.80;;;0.60;;
73682;SDS011;72538;48.146;11.740;2023-10-31T05:21:04;2.40;;;1.00;;
73682;SDS011;72538;48.146;11.740;2023-10-31T05:23:30;3.00;;;0.73;;
73682;SDS011;72538;48.146;11.740;2023-10-31T05:25:56;1.90;;;0.60;;
73682;SDS011;72538;48.146;11.740;2023-10-31T05:28:22;0.87;;;0.70;;
73682;SDS011;72538;48.146;11.740;2023-10-31T05:30:48;0.80;;;0.50;;
73682;SDS011;72538;48.146;11.740;2023-10-31T05:33:15;1.00;;;0.80;;
73682;SDS011;72538;48.146;11.740;2023-10-31T05:35:41;1.43;;;0.77;;
73682;SDS011;72538;48.146;11.740;2023-10-31T05:38:08;0.67;;;0.67;;
73682;SDS011;72538;48.146;11.740;2023-10-31T05:40:34;1.77;;;0.80;;
73682;SDS011;72538;48.146;11.740;2023-10-31T05:43:02;1.73;;;0.70;;
73682;SDS011;72538;48.146;11.740;2023-10-31T05:45:29;1.10;;;1.00;;
73682;SDS011;72538;48.146;11.740;2023-10-31T05:47:56;1.83;;;0.80;;
73682;SDS011;72538;48.146;11.740;2023-10-31T05:50:22;2.40;;;0.87;;
73682;SDS011;72538;48.146;11.740;2023-10-31T05:52:47;1.40;;;0.80;;
73682;SDS011;72538;48.146;11.740;2023-10-31T05:55:13;1.00;;;0.80;;
73682;SDS011;72538;48.146;11.740;2023-10-31T05:57:39;1.07;;;0.97;;
73682;SDS011;72538;48.146;11.740;2023-10-31T06:00:06;0.80;;;0.80;;
73682;SDS011;72538;48.146;11.740;2023-10-31T06:02:33;0.77;;;0.70;;
73682;SDS011;72538;48.146;11.740;2023-10-31T06:04:58;1.70;;;0.73;;
73682;SDS011;72538;48.146;11.740;2023-10-31T06:07:24;0.97;;;0.87;;
73682;SDS011;72538;48.146;11.740;2023-10-31T06:09:50;2.80;;;0.80;;
73682;SDS011;72538;48.146;11.740;2023-10-31T06:12:16;0.93;;;0.70;;
73682;SDS011;72538;48.146;11.740;2023-10-31T06:14:42;2.63;;;0.80;;
73682;SDS011;72538;48.146;11.740;2023-10-31T06:17:07;1.93;;;0.80;;
73682;SDS011;72538;48.146;11.740;2023-10-31T06:19:34;1.73;;;1.10;;
73682;SDS011;72538;48.146;11.740;2023-10-31T06:22:01;1.47;;;1.00;;
73682;SDS011;72538;48.146;11.740;2023-10-31T06:24:27;3.17;;;0.80;;
73682;SDS011;72538;48.146;11.740;2023-10-31T06:26:52;2.10;;;1.13;;
73682;SDS011;72538;48.146;11.740;2023-10-31T06:29:18;2.33;;;1.10;;
73682;SDS011;72538;48.146;11.740;2023-10-31T06:31:44;1.77;;;0.90;;
73682;SDS011;72538;48.146;11.740;2023-10-31T06:34:10;2.70;;;1.43;;
73682;SDS011;72538;48.146;11.740;2023-10-31T06:36:35;0.90;;;0.90;;
73682;SDS011;72538;48.146;11.740;2023-10-31T06:39:01;1.43;;;0.90;;
73682;SDS011;72538;48.146;11.740;2023-10-31T06:41:27;2.13;;;1.10;;
73682;SDS011;72538;48.146;11.740;2023-10-31T06:43:53;2.30;;;1.10;;
73682;SDS011;72538;48.146;11.740;2023-10-31T06:46:19;0.80;;;0.80;;
73682;SDS011;72538;48.146;11.740;2023-10-31T06:48:45;3.40;;;1.30;;
73682;SDS011;72538;48.146;11.740;2023-10-31T06:51:11;2.83;;;1.10;;
73682;SDS011;72538;48.146;11.740;2023-10-31T06:53:36;1.97;;;1.47;;
73682;SDS011;72538;48.146;11.740;2023-10-31T06:56:02;3.37;;;1.77;;
73682;SDS011;72538;48.146;11.740;2023-10-31T06:58:29;1.10;;;0.87;;
73682;SDS011;72538;48.146;11.740;2023-10-31T07:00:55;2.17;;;1.23;;
73682;SDS011;72538;48.146;11.740;2023-10-31T07:03:22;2.57;;;1.20;;
73682;SDS011;72538;48.146;11.740;2023-10-31T07:05:48;1.80;;;1.13;;
73682;SDS011;72538;48.146;11.740;2023-10-31T07:08:14;2.00;;;1.03;;
73682;SDS011;72538;48.146;11.740;2023-10-31T07:10:39;1.57;;;1.20;;
73682;SDS011;72538;48.146;11.740;2023-10-31T07:13:05;0.80;;;0.80;;
73682;SDS011;72538;48.146;11.740;2023-10-31T07:15:31;2.40;;;1.10;;
73682;SDS011;72538;48.146;11.740;2023-10-31T07:17:57;2.67;;;1.07;;
73682;SDS011;72538;48.146;11.740;2023-10-31T07:20:23;3.27;;;1.03;;
73682;SDS011;72538;48.146;11.740;2023-10-31T07:22:48;2.57;;;1.20;;
73682;SDS011;72538;48.146;11.740;2023-10-31T07:25:14;2.90;;;0.93;;
73682;SDS011;72538;48.146;11.740;2023-10-31T07:27:40;2.13;;;1.10;;
73682;SDS011;72538;48.146;11.740;2023-10-31T07:30:06;0.83;;;0.83;;
73682;SDS011;72538;48.146;11.740;2023-10-31T07:32:33;2.20;;;1.10;;
73682;SDS011;72538;48.146;11.740;2023-10-31T07:34:58;1.60;;;1.10;;
73682;SDS011;72538;48.146;11.740;2023-10-31T07:37:24;1.30;;;1.10;;
73682;SDS011;72538;48.146;11.740;2023-10-31T07:39:50;2.57;;;1.27;;
73682;SDS011;72538;48.146;11.740;2023-10-31T07:42:18;2.80;;;0.97;;
73682;SDS011;72538;48.146;11.740;2023-10-31T07:44:45;1.80;;;1.00;;
73682;SDS011;72538;48.146;11.740;2023-10-31T07:47:10;2.63;;;1.30;;
73682;SDS011;72538;48.146;11.740;2023-10-31T07:49:36;4.93;;;1.13;;
73682;SDS011;72538;48.146;11.740;2023-10-31T07:52:02;1.23;;;0.80;;
73682;SDS011;72538;48.146;11.740;2023-10-31T07:54:28;3.67;;;1.20;;
73682;SDS011;72538;48.146;11.740;2023-10-31T07:56:53;3.43;;;1.70;;
73682;SDS011;72538;48.146;11.740;2023-10-31T07:59:19;1.77;;;1.20;;
73682;SDS011;72538;48.146;11.740;2023-10-31T08:01:45;2.17;;;1.10;;
73682;SDS011;72538;48.146;11.740;2023-10-31T08:04:13;1.73;;;0.90;;
73682;SDS011;72538;48.146;11.740;2023-10-31T08:06:40;1.40;;;0.97;;
73682;SDS011;72538;48.146;11.740;2023-10-31T08:09:06;1.70;;;1.10;;
73682;SDS011;72538;48.146;11.740;2023-10-31T08:11:32;2.40;;;1.30;;
73682;SDS011;72538;48.146;11.740;2023-10-31T08:13:59;4.60;;;1.50;;
73682;SDS011;72538;48.146;11.740;2023-10-31T08:16:25;4.27;;;1.37;;
73682;SDS011;72538;48.146;11.740;2023-10-31T08:18:51;2.03;;;1.40;;
73682;SDS011;72538;48.146;11.740;2023-10-31T08:21:18;1.80;;;1.40;;
73682;SDS011;72538;48.146;11.740;2023-10-31T08:23:43;2.13;;;1.40;;
73682;SDS011;72538;48.146;11.740;2023-10-31T08:26:11;2.93;;;1.50;;
73682;SDS011;72538;48.146;11.740;2023-10-31T08:28:38;3.67;;;1.60;;
73682;SDS011;72538;48.146;11.740;2023-10-31T08:31:04;4.00;;;1.20;;
73682;SDS011;72538;48.146;11.740;2023-10-31T08:33:30;3.07;;;1.80;;
73682;SDS011;72538;48.146;11.740;2023-10-31T08:35:56;2.17;;;1.53;;
73682;SDS011;72538;48.146;11.740;2023-10-31T08:38:22;1.93;;;1.43;;
73682;SDS011;72538;48.146;11.740;2023-10-31T08:40:48;3.27;;;1.10;;
73682;SDS011;72538;48.146;11.740;2023-10-31T08:43:14;0.93;;;0.80;;
73682;SDS011;72538;48.146;11.740;2023-10-31T08:45:40;1.77;;;1.20;;
73682;SDS011;72538;48.146;11.740;2023-10-31T08:48:06;4.33;;;1.00;;
73682;SDS011;72538;48.146;11.740;2023-10-31T08:50:31;2.60;;;0.93;;
73682;SDS011;72538;48.146;11.740;2023-10-31T08:52:57;4.93;;;3.10;;
73682;SDS011;72538;48.146;11.740;2023-10-31T08:55:23;2.70;;;1.30;;
73682;SDS011;72538;48.146;11.740;2023-10-31T08:57:48;4.50;;;1.20;;
73682;SDS011;72538;48.146;11.740;2023-10-31T09:00:15;1.70;;;1.27;;
73682;SDS011;72538;48.146;11.740;2023-10-31T09:02:41;1.97;;;0.87;;
73682;SDS011;72538;48.146;11.740;2023-10-31T09:05:08;3.17;;;0.90;;
73682;SDS011;72538;48.146;11.740;2023-10-31T09:07:34;2.13;;;1.00;;
73682;SDS011;72538;48.146;11.740;2023-10-31T09:09:59;4.80;;;1.03;;
73682;SDS011;72538;48.146;11.740;2023-10-31T09:12:25;1.33;;;1.10;;
73682;SDS011;72538;48.146;11.740;2023-10-31T09:14:51;2.50;;;1.00;;
73682;SDS011;72538;48.146;11.740;2023-10-31T09:17:17;3.67;;;1.33;;
73682;SDS011;72538;48.146;11.740;2023-10-31T09:19:44;1.10;;;1.00;;
73682;SDS011;72538;48.146;11.740;2023-10-31T09:22:09;3.60;;;1.23;;
73682;SDS011;72538;48.146;11.740;2023-10-31T09:24:35;1.60;;;1.50;;
73682;SDS011;72538;48.146;11.740;2023-10-31T09:27:01;5.57;;;1.30;;
73682;SDS011;72538;48.146;11.740;2023-10-31T09:29:26;4.53;;;1.47;;
73682;SDS011;72538;48.146;11.740;2023-10-31T09:31:53;2.93;;;1.20;;
73682;SDS011;72538;48.146;11.740;2023-10-31T09:34:18;2.33;;;1.30;;
73682;SDS011;72538;48.146;11.740;2023-10-31T09:36:44;2.83;;;1.10;;
73682;SDS011;72538;48.146;11.740;2023-10-31T09:39:10;2.40;;;1.23;;
73682;SDS011;72538;48.146;11.740;2023-10-31T09:41:36;3.43;;;1.33;;
73682;SDS011;72538;48.146;11.740;2023-10-31T09:44:02;2.10;;;1.00;;
73682;SDS011;72538;48.146;11.740;2023-10-31T09:46:28;2.30;;;1.00;;
73682;SDS011;72538;48.146;11.740;2023-10-31T09:48:54;1.90;;;1.00;;
73682;SDS011;72538;48.146;11.740;2023-10-31T09:51:21;4.57;;;1.30;;
73682;SDS011;72538;48.146;11.740;2023-10-31T09:53:47;5.67;;;1.70;;
73682;SDS011;72538;48.146;11.740;2023-10-31T09:56:13;3.53;;;1.30;;
73682;SDS011;72538;48.146;11.740;2023-10-31T09:58:40;4.97;;;1.40;;
73682;SDS011;72538;48.146;11.740;2023-10-31T10:01:07;3.33;;;1.17;;
73682;SDS011;72538;48.146;11.740;2023-10-31T10:03:33;2.63;;;1.20;;
73682;SDS011;72538;48.146;11.740;2023-10-31T10:05:59;3.87;;;1.20;;
73682;SDS011;72538;48.146;11.740;2023-10-31T10:08:27;2.90;;;1.37;;
73682;SDS011;72538;48.146;11.740;2023-10-31T10:10:53;3.33;;;1.20;;
73682;SDS011;72538;48.146;11.740;2023-10-31T10:13:20;3.47;;;1.30;;
73682;SDS011;72538;48.146;11.740;2023-10-31T10:15:47;2.63;;;1.00;;
73682;SDS011;72538;48.146;11.740;2023-10-31T10:18:30;4.97;;;0.90;;
73682;SDS011;72538;48.146;11.740;2023-10-31T10:21:02;1.83;;;1.20;;
73682;SDS011;72538;48.146;11.740;2023-10-31T10:23:27;2.30;;;0.87;;
73682;SDS011;72538;48.146;11.740;2023-10-31T10:25:54;3.80;;;1.40;;
73682;SDS011;72538;48.146;11.740;2023-10-31T10:28:21;2.90;;;1.33;;
73682;SDS011;72538;48.146;11.740;2023-10-31T10:30:47;2.60;;;1.13;;
73682;SDS011;72538;48.146;11.740;2023-10-31T10:33:14;4.90;;;1.37;;
73682;SDS011;72538;48.146;11.740;2023-10-31T10:35:41;2.90;;;1.27;;
73682;SDS011;72538;48.146;11.740;2023-10-31T10:40:43;4.93;;;1.60;;
73682;SDS011;72538;48.146;11.740;2023-10-31T10:43:17;3.43;;;0.87;;
73682;SDS011;72538;48.146;11.740;2023-10-31T10:45:45;1.60;;;1.00;;
73682;SDS011;72538;48.146;11.740;2023-10-31T10:48:15;5.20;;;2.83;;
73682;SDS011;72538;48.146;11.740;2023-10-31T10:50:43;5.13;;;1.70;;
73682;SDS011;72538;48.146;11.740;2023-10-31T10:53:20;4.40;;;1.50;;
73682;SDS011;72538;48.146;11.740;2023-10-31T10:55:51;2.83;;;1.33;;
73682;SDS011;72538;48.146;11.740;2023-10-31T11:01:04;1.97;;;1.20;;
73682;SDS011;72538;48.146;11.740;2023-10-31T11:03:30;3.53;;;1.03;;
73682;SDS011;72538;48.146;11.740;2023-10-31T11:05:58;1.67;;;1.00;;
73682;SDS011;72538;48.146;11.740;2023-10-31T11:08:26;2.57;;;1.03;;
73682;SDS011;72538;48.146;11.740;2023-10-31T11:10:53;2.90;;;1.33;;
73682;SDS011;72538;48.146;11.740;2023-10-31T11:13:22;1.73;;;0.90;;
73682;SDS011;72538;48.146;11.740;2023-10-31T11:15:48;1.60;;;1.07;;
73682;SDS011;72538;48.146;11.740;2023-10-31T11:18:17;3.37;;;1.10;;
73682;SDS011;72538;48.146;11.740;2023-10-31T11:20:43;3.73;;;1.30;;
73682;SDS011;72538;48.146;11.740;2023-10-31T11:23:10;4.80;;;1.37;;
73682;SDS011;72538;48.146;11.740;2023-10-31T11:25:35;2.63;;;1.23;;
73682;SDS011;72538;48.146;11.740;2023-10-31T11:28:15;3.50;;;1.73;;
73682;SDS011;72538;48.146;11.740;2023-10-31T11:30:43;4.03;;;0.90;;
73682;SDS011;72538;48.146;11.740;2023-10-31T11:33:12;2.73;;;1.30;;
73682;SDS011;72538;48.146;11.740;2023-10-31T11:35:39;3.20;;;0.93;;
73682;SDS011;72538;48.146;11.740;2023-10-31T11:38:09;2.40;;;1.10;;
73682;SDS011;72538;48.146;11.740;2023-10-31T11:40:57;2.57;;;1.27;;
73682;SDS011;72538;48.146;11.740;2023-10-31T11:43:10;2.20;;;1.10;;
73682;SDS011;72538;48.146;11.740;2023-10-31T11:45:40;1.37;;;1.00;;
73682;SDS011;72538;48.146;11.740;2023-10-31T11:48:10;4.23;;;1.40;;
73682;SDS011;72538;48.146;11.740;2023-10-31T11:50:37;2.70;;;1.30;;
73682;SDS011;72538;48.146;11.740;2023-10-31T11:53:04;2.83;;;1.20;;
73682;SDS011;72538;48.146;11.740;2023-10-31T11:55:38;2.67;;;1.10;;
73682;SDS011;72538;48.146;11.740;2023-10-31T12:00:46;2.90;;;1.97;;
73682;SDS011;72538;48.146;11.740;2023-10-31T12:03:17;2.60;;;1.20;;
73682;SDS011;72538;48.146;11.740;2023-10-31T12:05:52;4.37;;;1.03;;
73682;SDS011;72538;48.146;11.740;2023-10-31T12:08:26;2.80;;;1.20;;
73682;SDS011;72538;48.146;11.740;2023-10-31T12:11:02;4.43;;;1.33;;
73682;SDS011;72538;48.146;11.740;2023-10-31T12:13:30;4.97;;;2.27;;
73682;SDS011;72538;48.146;11.740;2023-10-31T12:15:56;3.20;;;1.23;;
73682;SDS011;72538;48.146;11.740;2023-10-31T12:18:22;3.50;;;1.23;;
73682;SDS011;72538;48.146;11.740;2023-10-31T12:20:48;7.70;;;2.30;;
73682;SDS011;72538;48.146;11.740;2023-10-31T12:23:15;12.73;;;1.00;;
73682;SDS011;72538;48.146;11.740;2023-10-31T12:25:47;2.47;;;1.43;;
73682;SDS011;72538;48.146;11.740;2023-10-31T12:28:21;6.13;;;1.63;;
73682;SDS011;72538;48.146;11.740;2023-10-31T12:30:45;3.57;;;1.40;;
73682;SDS011;72538;48.146;11.740;2023-10-31T12:33:12;3.87;;;1.50;;
73682;SDS011;72538;48.146;11.740;2023-10-31T12:35:38;4.07;;;1.23;;
73682;SDS011;72538;48.146;11.740;2023-10-31T12:38:04;2.23;;;1.13;;
73682;SDS011;72538;48.146;11.740;2023-10-31T12:40:32;3.13;;;1.20;;
73682;SDS011;72538;48.146;11.740;2023-10-31T12:42:59;1.93;;;1.03;;
73682;SDS011;72538;48.146;11.740;2023-10-31T12:45:26;3.53;;;1.30;;
73682;SDS011;72538;48.146;11.740;2023-10-31T12:48:02;2.40;;;1.10;;
73682;SDS011;72538;48.146;11.740;2023-10-31T12:50:31;5.13;;;1.63;;
73682;SDS011;72538;48.146;11.740;2023-10-31T12:52:58;3.07;;;1.10;;
73682;SDS011;72538;48.146;11.740;2023-10-31T12:55:26;2.10;;;1.00;;
73682;SDS011;72538;48.146;11.740;2023-10-31T12:57:54;2.70;;;1.20;;
73682;SDS011;72538;48.146;11.740;2023-10-31T13:00:21;2.73;;;1.00;;
73682;SDS011;72538;48.146;11.740;2023-10-31T13:02:51;1.80;;;0.83;;
73682;SDS011;72538;48.146;11.740;2023-10-31T13:05:19;5.50;;;3.37;;
73682;SDS011;72538;48.146;11.740;2023-10-31T13:07:48;3.70;;;2.53;;
73682;SDS011;72538;48.146;11.740;2023-10-31T13:10:18;3.23;;;1.30;;
73682;SDS011;72538;48.146;11.740;2023-10-31T13:12:45;4.47;;;1.13;;
73682;SDS011;72538;48.146;11.740;2023-10-31T13:15:15;2.93;;;1.10;;
73682;SDS011;72538;48.146;11.740;2023-10-31T13:17:44;3.47;;;1.20;;
73682;SDS011;72538;48.146;11.740;2023-10-31T13:20:10;2.97;;;1.00;;
73682;SDS011;72538;48.146;11.740;2023-10-31T13:22:37;2.83;;;1.23;;
73682;SDS011;72538;48.146;11.740;2023-10-31T13:25:03;2.57;;;0.90;;
73682;SDS011;72538;48.146;11.740;2023-10-31T13:27:36;1.63;;;0.80;;
73682;SDS011;72538;48.146;11.740;2023-10-31T13:30:03;0.60;;;0.60;;
73682;SDS011;72538;48.146;11.740;2023-10-31T13:32:29;1.37;;;0.77;;
73682;SDS011;72538;48.146;11.740;2023-10-31T13:34:55;2.53;;;0.80;;
73682;SDS011;72538;48.146;11.740;2023-10-31T13:37:21;1.10;;;0.77;;
73682;SDS011;72538;48.146;11.740;2023-10-31T13:39:47;3.43;;;0.80;;
73682;SDS011;72538;48.146;11.740;2023-10-31T13:42:13;1.10;;;0.80;;
73682;SDS011;72538;48.146;11.740;2023-10-31T13:44:43;1.53;;;0.70;;
73682;SDS011;72538;48.146;11.740;2023-10-31T13:47:09;0.70;;;0.70;;
73682;SDS011;72538;48.146;11.740;2023-10-31T13:49:35;1.33;;;1.00;;
73682;SDS011;72538;48.146;11.740;2023-10-31T13:52:04;1.30;;;0.90;;
73682;SDS011;72538;48.146;11.740;2023-10-31T13:54:31;0.90;;;0.90;;
73682;SDS011;72538;48.146;11.740;2023-10-31T13:56:59;5.33;;;3.93;;
73682;SDS011;72538;48.146;11.740;2023-10-31T13:59:25;2.50;;;2.23;;
73682;SDS011;72538;48.146;11.740;2023-10-31T14:01:51;3.13;;;2.13;;
73682;SDS011;72538;48.146;11.740;2023-10-31T14:04:17;1.70;;;1.60;;
73682;SDS011;72538;48.146;11.740;2023-10-31T14:06:44;1.60;;;1.10;;
73682;SDS011;72538;48.146;11.740;2023-10-31T14:09:10;1.13;;;1.07;;
73682;SDS011;72538;48.146;11.740;2023-10-31T14:11:37;2.73;;;2.53;;
73682;SDS011;72538;48.146;11.740;2023-10-31T14:14:04;2.93;;;2.20;;
73682;SDS011;72538;48.146;11.740;2023-10-31T14:16:39;3.53;;;3.00;;
73682;SDS011;72538;48.146;11.740;2023-10-31T14:19:05;3.77;;;2.53;;
73682;SDS011;72538;48.146;11.740;2023-10-31T14:21:33;2.10;;;1.80;;
73682;SDS011;72538;48.146;11.740;2023-10-31T14:23:59;6.00;;;1.80;;
73682;SDS011;72538;48.146;11.740;2023-10-31T14:26:29;2.43;;;1.80;;
73682;SDS011;72538;48.146;11.740;2023-10-31T14:28:56;2.07;;;1.77;;
73682;SDS011;72538;48.146;11.740;2023-10-31T14:31:21;2.50;;;1.00;;
73682;SDS011;72538;48.146;11.740;2023-10-31T14:33:47;1.93;;;1.70;;
73682;SDS011;72538;48.146;11.740;2023-10-31T14:36:13;1.80;;;0.90;;
73682;SDS011;72538;48.146;11.740;2023-10-31T14:38:40;1.63;;;0.90;;